createdAt,value
2018-08-19T00:02:17.712Z,59.70
2018-08-19T00:05:04.953Z,59.00
2018-08-19T00:07:35.130Z,59.00
2018-08-19T00:10:06.784Z,58.40
2018-08-19T00:12:43.835Z,59.30
2018-08-19T00:15:13.968Z,58.40
2018-08-19T00:17:43.578Z,57.40
2018-08-19T00:20:14.361Z,57.70
2018-08-19T00:22:44.192Z,58.10
2018-08-19T00:25:29.751Z,57.40
2018-08-19T00:27:59.133Z,57.60
2018-08-19T00:30:29.560Z,57.80
2018-08-19T00:33:00.394Z,57.10
2018-08-19T00:35:29.503Z,56.50
2018-08-19T00:37:58.816Z,56.90
2018-08-19T00:40:27.541Z,56.20
2018-08-19T00:42:56.740Z,56.00
2018-08-19T00:45:25.916Z,55.90
2018-08-19T00:47:54.605Z,55.10
2018-08-19T00:50:24.430Z,54.90
2018-08-19T00:52:53.767Z,54.90
2018-08-19T00:55:23.016Z,55.70
2018-08-19T00:57:57.552Z,55.10
2018-08-19T01:00:28.869Z,54.90
2018-08-19T01:02:57.541Z,55.30
2018-08-19T01:05:26.020Z,54.80
2018-08-19T01:07:54.843Z,55.00
2018-08-19T01:10:27.002Z,55.60
2018-08-19T01:12:55.602Z,55.00
2018-08-19T01:15:23.893Z,55.90
2018-08-19T01:17:52.823Z,56.40
2018-08-19T01:20:22.605Z,56.10
2018-08-19T01:22:52.559Z,56.20
2018-08-19T01:25:21.406Z,57.00
2018-08-19T01:27:51.409Z,57.40
2018-08-19T01:30:24.363Z,57.40
2018-08-19T01:32:55.303Z,57.90
2018-08-19T01:35:30.762Z,58.50
2018-08-19T01:37:59.577Z,59.10
2018-08-19T01:40:29.891Z,58.90
2018-08-19T01:42:58.960Z,59.00
2018-08-19T01:45:27.599Z,59.20
2018-08-19T01:47:56.376Z,59.80
2018-08-19T01:50:27.797Z,59.40
2018-08-19T01:52:56.617Z,59.70
2018-08-19T01:55:25.372Z,59.90
2018-08-19T01:57:56.750Z,58.80
2018-08-19T02:00:26.272Z,59.30
2018-08-19T02:03:02.878Z,58.60
2018-08-19T02:05:31.774Z,59.50
2018-08-19T02:08:03.708Z,59.70
2018-08-19T02:10:34.644Z,59.30
2018-08-19T02:13:03.567Z,59.20
2018-08-19T02:15:33.303Z,60.00
2018-08-19T02:18:04.054Z,59.30
2018-08-19T02:20:38.525Z,59.90
2018-08-19T02:23:08.999Z,59.60
2018-08-19T02:25:43.852Z,59.60
2018-08-19T02:28:14.992Z,60.20
2018-08-19T02:31:02.121Z,59.70
2018-08-19T02:33:34.352Z,61.00
2018-08-19T02:36:06.354Z,61.20
2018-08-19T02:38:36.272Z,60.90
2018-08-19T02:41:06.528Z,61.90
2018-08-19T02:43:44.262Z,60.40
2018-08-19T02:46:12.939Z,60.10
2018-08-19T02:48:49.329Z,60.40
2018-08-19T02:51:18.946Z,60.20
2018-08-19T02:53:49.578Z,59.90
2018-08-19T02:56:19.098Z,59.90
2018-08-19T02:58:48.405Z,60.80
2018-08-19T03:01:18.192Z,60.60
2018-08-19T03:03:46.877Z,61.50
2018-08-19T03:06:16.043Z,60.80
2018-08-19T03:08:50.467Z,60.10
2018-08-19T03:11:21.128Z,59.90
2018-08-19T03:13:49.763Z,61.10
2018-08-19T03:16:18.981Z,60.70
2018-08-19T03:18:52.514Z,61.20
2018-08-19T03:21:22.167Z,60.80
2018-08-19T03:23:52.791Z,61.00
2018-08-19T03:26:21.469Z,61.40
2018-08-19T03:28:50.247Z,61.50
2018-08-19T03:31:18.943Z,61.60
2018-08-19T03:33:48.487Z,61.30
2018-08-19T03:36:17.769Z,61.70
2018-08-19T03:38:46.312Z,63.30
2018-08-19T03:41:15.133Z,61.40
2018-08-19T03:43:51.260Z,61.50
2018-08-19T03:46:20.231Z,61.40
2018-08-19T03:48:50.451Z,62.00
2018-08-19T03:51:19.707Z,62.10
2018-08-19T03:53:48.332Z,63.60
2018-08-19T03:56:22.577Z,63.70
2018-08-19T03:58:54.388Z,64.20
2018-08-19T04:01:41.153Z,65.30
2018-08-19T04:04:10.945Z,65.30
2018-08-19T04:06:40.713Z,64.60
2018-08-19T04:09:09.435Z,64.90
2018-08-19T04:11:38.988Z,65.50
2018-08-19T04:14:28.682Z,66.10
2018-08-19T04:16:59.157Z,66.40
2018-08-19T04:19:28.470Z,68.10
2018-08-19T04:22:01.195Z,68.50
2018-08-19T04:24:31.012Z,68.40
2018-08-19T04:27:09.288Z,68.20
2018-08-19T04:29:39.194Z,67.80
2018-08-19T04:32:16.830Z,68.40
2018-08-19T04:34:46.163Z,69.30
2018-08-19T04:37:15.966Z,70.00
2018-08-19T04:39:45.676Z,69.20
2018-08-19T04:42:14.527Z,68.90
2018-08-19T04:44:44.068Z,68.70
2018-08-19T04:47:31.648Z,69.00
2018-08-19T04:50:00.663Z,68.80
2018-08-19T04:52:31.628Z,69.20
2018-08-19T04:55:01.484Z,68.60
2018-08-19T04:57:30.264Z,68.50
2018-08-19T04:59:59.026Z,70.20
2018-08-19T05:02:28.561Z,69.30
2018-08-19T05:04:57.776Z,69.80
2018-08-19T05:07:26.612Z,69.70
2018-08-19T05:09:55.411Z,69.00
2018-08-19T05:12:24.069Z,68.40
2018-08-19T05:14:52.868Z,68.40
2018-08-19T05:17:21.673Z,68.20
2018-08-19T05:19:52.791Z,67.90
2018-08-19T05:22:21.667Z,69.00
2018-08-19T05:24:50.627Z,68.10
2018-08-19T05:27:19.340Z,68.10
2018-08-19T05:29:48.201Z,68.20
2018-08-19T05:32:16.907Z,68.00
2018-08-19T05:34:45.558Z,68.50
2018-08-19T05:37:14.318Z,68.10
2018-08-19T05:39:48.706Z,68.00
2018-08-19T05:42:18.097Z,68.90
2018-08-19T05:44:46.920Z,68.50
2018-08-19T05:47:18.728Z,68.00
2018-08-19T05:49:48.563Z,68.80
2018-08-19T05:52:20.413Z,67.80
2018-08-19T05:54:58.529Z,68.00
2018-08-19T05:57:30.538Z,67.40
2018-08-19T06:00:00.448Z,66.70
2018-08-19T06:02:36.971Z,67.20
2018-08-19T06:05:05.689Z,67.00
2018-08-19T06:07:35.085Z,67.10
2018-08-19T06:10:04.342Z,66.50
2018-08-19T06:12:33.828Z,65.70
2018-08-19T06:15:02.680Z,66.50
2018-08-19T06:17:32.070Z,66.10
2018-08-19T06:20:01.400Z,65.40
2018-08-19T06:22:36.315Z,64.90
2018-08-19T06:25:08.011Z,64.10
2018-08-19T06:27:49.180Z,64.10
2018-08-19T06:30:22.546Z,64.40
2018-08-19T06:35:32.958Z,64.90
2018-08-19T06:38:02.508Z,64.30
2018-08-19T06:40:32.580Z,65.10
2018-08-19T06:43:05.536Z,64.00
2018-08-19T06:45:35.686Z,63.20
2018-08-19T06:48:04.828Z,63.50
2018-08-19T06:50:36.040Z,63.60
2018-08-19T06:53:04.946Z,62.20
2018-08-19T06:55:33.976Z,63.50
2018-08-19T06:58:02.844Z,62.00
2018-08-19T07:00:33.888Z,60.50
2018-08-19T07:03:07.043Z,62.40
2018-08-19T07:05:37.109Z,61.70
2018-08-19T07:08:09.438Z,61.10
2018-08-19T07:10:40.928Z,61.30
2018-08-19T07:13:13.179Z,61.10
2018-08-19T07:15:43.000Z,60.80
2018-08-19T07:18:13.953Z,60.40
2018-08-19T07:20:44.083Z,60.10
2018-08-19T07:23:13.174Z,61.70
2018-08-19T07:25:43.032Z,61.60
2018-08-19T07:28:12.901Z,61.30
2018-08-19T07:30:41.995Z,60.00
2018-08-19T07:33:12.654Z,60.60
2018-08-19T07:35:41.899Z,60.70
2018-08-19T07:38:10.891Z,59.70
2018-08-19T07:40:39.475Z,60.00
2018-08-19T07:43:08.470Z,59.70
2018-08-19T07:45:38.845Z,59.80
2018-08-19T07:48:08.454Z,59.70
2018-08-19T07:50:40.260Z,59.40
2018-08-19T07:53:11.625Z,58.30
2018-08-19T07:55:42.317Z,58.00
2018-08-19T07:58:11.615Z,57.50
2018-08-19T08:00:41.633Z,56.60
2018-08-19T08:03:11.161Z,56.50
2018-08-19T08:05:46.785Z,57.30
2018-08-19T08:08:18.071Z,56.70
2018-08-19T08:10:47.589Z,57.40
2018-08-19T08:13:17.807Z,56.20
2018-08-19T08:15:55.175Z,56.60
2018-08-19T08:18:24.677Z,57.00
2018-08-19T08:21:01.566Z,57.30
2018-08-19T08:23:30.633Z,55.90
2018-08-19T08:25:59.534Z,55.50
2018-08-19T08:28:29.117Z,55.40
2018-08-19T08:30:59.618Z,55.10
2018-08-19T08:33:28.939Z,54.40
2018-08-19T08:35:58.233Z,55.10
2018-08-19T08:38:27.032Z,54.90
2018-08-19T08:40:56.595Z,55.40
2018-08-19T08:43:25.430Z,53.20
2018-08-19T08:45:58.617Z,53.00
2018-08-19T08:48:29.663Z,54.10
2018-08-19T08:50:58.939Z,54.30
2018-08-19T08:53:39.721Z,53.40
2018-08-19T08:56:10.832Z,53.80
2018-08-19T08:58:40.949Z,52.30
2018-08-19T09:01:11.521Z,51.20
2018-08-19T09:03:41.368Z,49.80
2018-08-19T09:06:18.587Z,50.10
2018-08-19T09:08:48.441Z,49.90
2018-08-19T09:11:18.775Z,49.00
2018-08-19T09:13:48.992Z,47.70
2018-08-19T09:16:18.756Z,47.50
2018-08-19T09:18:49.778Z,46.10
2018-08-19T09:21:19.272Z,47.70
2018-08-19T09:23:49.674Z,48.80
2018-08-19T09:26:18.441Z,50.20
2018-08-19T09:28:49.385Z,50.40
2018-08-19T09:31:20.462Z,50.80
2018-08-19T09:33:50.061Z,49.20
2018-08-19T09:36:22.136Z,49.20
2018-08-19T09:38:52.861Z,49.30
2018-08-19T09:41:23.508Z,50.40
2018-08-19T09:43:53.607Z,49.70
2018-08-19T09:46:25.914Z,49.90
2018-08-19T09:48:55.096Z,51.00
2018-08-19T09:51:26.302Z,51.00
2018-08-19T09:53:57.475Z,52.50
2018-08-19T09:56:32.453Z,52.90
2018-08-19T09:59:02.899Z,53.20
2018-08-19T10:01:38.603Z,53.20
2018-08-19T10:04:25.232Z,50.50
2018-08-19T10:07:06.704Z,49.90
2018-08-19T10:09:36.656Z,50.80
2018-08-19T10:12:08.953Z,50.40
2018-08-19T10:14:37.540Z,49.50
2018-08-19T10:17:06.162Z,49.70
2018-08-19T10:19:34.888Z,50.30
2018-08-19T10:22:03.814Z,50.00
2018-08-19T10:24:33.338Z,50.10
2018-08-19T10:27:06.445Z,50.20
2018-08-19T10:29:35.477Z,50.00
2018-08-19T10:32:04.685Z,51.90
2018-08-19T10:34:35.100Z,49.90
2018-08-19T10:37:05.284Z,49.80
2018-08-19T10:39:33.813Z,49.60
2018-08-19T10:42:19.429Z,48.50
2018-08-19T10:44:51.413Z,49.90
2018-08-19T10:47:20.494Z,48.70
2018-08-19T10:49:59.314Z,47.60
2018-08-19T10:52:29.238Z,48.60
2018-08-19T10:54:59.232Z,48.40
2018-08-19T10:57:27.907Z,47.00
2018-08-19T10:59:57.724Z,48.10
2018-08-19T11:02:26.341Z,47.70
2018-08-19T11:04:58.479Z,45.60
2018-08-19T11:07:27.346Z,47.70
2018-08-19T11:10:26.316Z,46.30
2018-08-19T11:12:58.324Z,44.60
2018-08-19T11:16:00.143Z,44.80
2018-08-19T11:18:35.095Z,45.10
2018-08-19T11:21:10.036Z,45.40
2018-08-19T11:23:42.443Z,44.90
2018-08-19T11:26:11.495Z,44.40
2018-08-19T11:28:44.892Z,44.50
2018-08-19T11:31:22.000Z,42.80
2018-08-19T11:33:51.351Z,42.10
2018-08-19T11:36:21.768Z,43.60
2018-08-19T11:38:55.085Z,42.20
2018-08-19T11:41:23.826Z,43.50
2018-08-19T11:43:52.520Z,43.40
2018-08-19T11:46:21.430Z,42.80
2018-08-19T11:48:55.394Z,42.30
2018-08-19T11:51:41.659Z,44.40
2018-08-19T11:54:13.189Z,45.20
2018-08-19T11:57:18.957Z,44.40
2018-08-19T11:59:48.444Z,41.90
2018-08-19T12:02:19.071Z,42.20
2018-08-19T12:04:47.936Z,43.60
2018-08-19T12:07:17.096Z,42.90
2018-08-19T12:09:53.314Z,43.50
2018-08-19T12:12:44.500Z,40.40
2018-08-19T12:15:12.992Z,41.60
2018-08-19T12:17:45.730Z,40.20
2018-08-19T12:20:22.709Z,41.80
2018-08-19T12:22:52.873Z,40.70
2018-08-19T12:25:21.513Z,38.20
2018-08-19T12:27:50.590Z,38.90
2018-08-19T12:30:19.807Z,37.20
2018-08-19T12:32:49.238Z,38.90
2018-08-19T12:35:19.454Z,37.60
2018-08-19T12:37:48.017Z,36.90
2018-08-19T12:40:17.667Z,36.80
2018-08-19T12:42:52.387Z,35.10
2018-08-19T12:45:22.384Z,36.10
2018-08-19T12:47:51.569Z,36.60
2018-08-19T12:50:20.360Z,37.10
2018-08-19T12:52:51.093Z,37.60
2018-08-19T12:55:21.777Z,36.90
2018-08-19T12:57:56.805Z,37.00
2018-08-19T13:00:28.077Z,35.50
2018-08-19T13:02:57.783Z,36.40
2018-08-19T13:05:28.093Z,36.10
2018-08-19T13:07:57.340Z,36.30
2018-08-19T13:10:36.508Z,38.00
2018-08-19T13:13:06.413Z,36.60
2018-08-19T13:15:35.078Z,36.60
2018-08-19T13:18:04.715Z,37.50
2018-08-19T13:23:13.697Z,39.00
2018-08-19T13:25:42.490Z,39.20
2018-08-19T13:28:11.808Z,39.20
2018-08-19T13:30:40.825Z,40.40
2018-08-19T13:33:10.389Z,39.30
2018-08-19T13:35:40.021Z,40.20
2018-08-19T13:38:08.998Z,39.00
2018-08-19T13:40:37.985Z,37.60
2018-08-19T13:43:07.396Z,37.40
2018-08-19T13:45:36.532Z,37.10
2018-08-19T13:48:06.644Z,36.90
2018-08-19T13:50:36.052Z,37.40
2018-08-19T13:53:06.735Z,38.00
2018-08-19T13:55:36.536Z,37.60
2018-08-19T13:58:06.704Z,37.60
2018-08-19T14:00:36.277Z,38.50
2018-08-19T14:03:06.339Z,37.90
2018-08-19T14:05:35.484Z,37.50
2018-08-19T14:08:04.725Z,37.50
2018-08-19T14:10:33.973Z,38.10
2018-08-19T14:13:05.443Z,38.50
2018-08-19T14:15:34.369Z,37.80
2018-08-19T14:18:05.072Z,38.10
2018-08-19T14:20:35.263Z,40.60
2018-08-19T14:23:06.433Z,37.60
2018-08-19T14:25:35.933Z,37.00
2018-08-19T14:28:07.508Z,37.40
2018-08-19T14:30:37.773Z,37.80
2018-08-19T14:33:07.683Z,36.90
2018-08-19T14:35:39.189Z,36.70
2018-08-19T14:38:10.028Z,37.70
2018-08-19T14:40:41.651Z,37.80
2018-08-19T14:43:12.275Z,35.80
2018-08-19T14:45:41.510Z,37.50
2018-08-19T14:48:12.215Z,37.30
2018-08-19T14:50:44.641Z,38.50
2018-08-19T14:53:17.678Z,39.00
2018-08-19T14:55:47.327Z,39.00
2018-08-19T14:58:22.039Z,38.60
2018-08-19T15:00:52.967Z,37.50
2018-08-19T15:03:24.905Z,38.30
2018-08-19T15:06:04.367Z,35.70
2018-08-19T15:08:43.258Z,37.00
2018-08-19T15:11:14.109Z,38.50
2018-08-19T15:13:45.819Z,38.40
2018-08-19T15:16:16.016Z,38.90
2018-08-19T15:18:48.189Z,38.60
2018-08-19T15:21:18.404Z,38.80
2018-08-19T15:23:47.589Z,38.10
2018-08-19T15:26:16.740Z,37.80
2018-08-19T15:28:48.971Z,38.70
2018-08-19T15:31:24.340Z,38.00
2018-08-19T15:33:54.183Z,38.50
2018-08-19T15:36:24.407Z,38.80
2018-08-19T15:38:53.553Z,39.40
2018-08-19T15:41:22.883Z,40.00
2018-08-19T15:43:55.915Z,40.50
2018-08-19T15:46:24.755Z,40.60
2018-08-19T15:48:55.266Z,40.10
2018-08-19T15:51:24.165Z,40.30
2018-08-19T15:53:52.713Z,40.90
2018-08-19T15:56:21.846Z,39.90
2018-08-19T15:58:51.197Z,40.40
2018-08-19T16:01:29.096Z,41.20
2018-08-19T16:04:06.405Z,41.80
2018-08-19T16:06:35.632Z,41.60
2018-08-19T16:09:09.312Z,41.00
2018-08-19T16:11:39.868Z,40.70
2018-08-19T16:14:17.152Z,41.10
2018-08-19T16:16:46.373Z,42.10
2018-08-19T16:19:15.320Z,41.40
2018-08-19T16:21:49.360Z,42.00
2018-08-19T16:24:17.952Z,42.40
2018-08-19T16:26:46.870Z,42.80
2018-08-19T16:29:15.366Z,43.50
2018-08-19T16:31:44.241Z,44.60
2018-08-19T16:34:12.873Z,44.80
2018-08-19T16:36:42.743Z,44.00
2018-08-19T16:39:13.595Z,45.50
2018-08-19T16:41:42.777Z,45.80
2018-08-19T16:44:11.679Z,46.20
2018-08-19T16:46:40.713Z,44.90
2018-08-19T16:49:09.756Z,46.50
2018-08-19T16:51:38.752Z,46.70
2018-08-19T16:54:07.759Z,47.20
2018-08-19T16:56:36.912Z,47.10
2018-08-19T16:59:05.638Z,47.10
2018-08-19T17:01:34.190Z,47.60
2018-08-19T17:04:02.567Z,48.10
2018-08-19T17:06:31.667Z,51.30
2018-08-19T17:09:00.332Z,53.00
2018-08-19T17:11:28.965Z,54.60
2018-08-19T17:13:58.245Z,55.80
2018-08-19T17:16:27.396Z,56.40
2018-08-19T17:18:56.183Z,57.80
2018-08-19T17:21:25.522Z,57.60
2018-08-19T17:23:55.126Z,58.70
2018-08-19T17:26:24.512Z,59.00
2018-08-19T17:28:53.305Z,59.20
2018-08-19T17:31:21.948Z,58.70
2018-08-19T17:33:50.945Z,59.60
2018-08-19T17:36:26.895Z,60.80
2018-08-19T17:38:56.050Z,60.20
2018-08-19T17:41:25.432Z,60.90
2018-08-19T17:43:54.393Z,61.30
2018-08-19T17:46:23.058Z,61.50
2018-08-19T17:48:53.596Z,61.20
2018-08-19T17:51:35.341Z,61.70
2018-08-19T17:54:12.494Z,61.90
2018-08-19T17:56:41.145Z,61.70
2018-08-19T17:59:09.976Z,61.20
2018-08-19T18:01:40.164Z,62.10
2018-08-19T18:04:10.260Z,62.60
2018-08-19T18:06:40.329Z,62.70
2018-08-19T18:11:42.317Z,62.60
2018-08-19T18:14:11.748Z,62.30
2018-08-19T18:16:40.420Z,63.10
2018-08-19T18:19:10.148Z,62.80
2018-08-19T18:21:40.055Z,63.10
2018-08-19T18:24:09.331Z,63.60
2018-08-19T18:26:38.464Z,64.30
2018-08-19T18:29:07.881Z,64.30
2018-08-19T18:31:37.124Z,63.10
2018-08-19T18:34:09.129Z,64.10
2018-08-19T18:36:38.959Z,64.30
2018-08-19T18:39:10.450Z,64.20
2018-08-19T18:41:45.336Z,64.40
2018-08-19T18:44:15.721Z,63.90
2018-08-19T18:46:44.261Z,63.20
2018-08-19T18:49:15.459Z,63.70
2018-08-19T18:51:50.465Z,64.20
2018-08-19T18:54:30.276Z,64.90
2018-08-19T18:57:09.176Z,64.90
2018-08-19T18:59:43.916Z,63.70
2018-08-19T19:02:13.791Z,63.50
2018-08-19T19:04:43.054Z,63.40
2018-08-19T19:07:14.761Z,64.30
2018-08-19T19:09:49.336Z,63.90
2018-08-19T19:12:22.246Z,63.60
2018-08-19T19:14:51.453Z,63.90
2018-08-19T19:17:22.369Z,64.40
2018-08-19T19:19:52.785Z,64.20
2018-08-19T19:22:23.676Z,64.80
2018-08-19T19:24:52.986Z,64.90
2018-08-19T19:27:23.353Z,65.40
2018-08-19T19:29:58.169Z,64.60
2018-08-19T19:32:27.593Z,64.90
2018-08-19T19:35:11.867Z,65.20
2018-08-19T19:37:46.556Z,64.70
2018-08-19T19:40:17.737Z,65.30
2018-08-19T19:42:47.286Z,65.10
2018-08-19T19:45:17.150Z,65.00
2018-08-19T19:47:45.992Z,64.90
2018-08-19T19:52:54.315Z,65.30
2018-08-19T19:55:24.317Z,66.00
2018-08-19T19:57:54.056Z,66.80
2018-08-19T20:00:23.882Z,67.00
2018-08-19T20:02:54.546Z,66.90
2018-08-19T20:05:25.761Z,67.70
2018-08-19T20:07:55.671Z,67.30
2018-08-19T20:10:26.961Z,66.70
2018-08-19T20:12:56.896Z,66.90
2018-08-19T20:15:27.252Z,67.20
2018-08-19T20:17:58.581Z,66.10
2018-08-19T20:20:27.418Z,65.70
2018-08-19T20:22:57.467Z,65.50
2018-08-19T20:25:27.399Z,65.50
2018-08-19T20:28:01.549Z,65.50
2018-08-19T20:30:31.344Z,64.40
2018-08-19T20:33:00.884Z,65.40
2018-08-19T20:35:30.732Z,65.30
2018-08-19T20:38:01.382Z,65.60
2018-08-19T20:40:32.310Z,65.30
2018-08-19T20:43:03.648Z,67.10
2018-08-19T20:45:33.580Z,64.90
2018-08-19T20:48:04.451Z,65.70
2018-08-19T20:50:33.982Z,65.40
2018-08-19T20:53:04.435Z,65.50
2018-08-19T20:55:33.878Z,65.30
2018-08-19T20:58:04.199Z,66.10
2018-08-19T21:00:33.873Z,65.40
2018-08-19T21:03:04.774Z,66.60
2018-08-19T21:05:34.847Z,66.00
2018-08-19T21:08:17.042Z,66.70
2018-08-19T21:10:48.844Z,66.40
2018-08-19T21:13:19.539Z,66.70
2018-08-19T21:15:52.533Z,67.10
2018-08-19T21:18:21.194Z,65.30
2018-08-19T21:20:50.637Z,65.40
2018-08-19T21:23:19.407Z,66.00
2018-08-19T21:25:54.147Z,65.60
2018-08-19T21:28:22.761Z,65.80
2018-08-19T21:30:52.364Z,66.30
2018-08-19T21:33:23.302Z,66.10
2018-08-19T21:35:55.184Z,66.10
2018-08-19T21:38:23.823Z,66.30
2018-08-19T21:40:55.461Z,66.70
2018-08-19T21:43:30.191Z,67.00
2018-08-19T21:46:01.427Z,67.60
2018-08-19T21:48:31.105Z,67.30
2018-08-19T21:50:59.848Z,68.30
2018-08-19T21:53:30.265Z,66.90
2018-08-19T21:55:59.485Z,67.00
2018-08-19T21:58:28.384Z,67.00
2018-08-19T22:00:59.079Z,67.80
2018-08-19T22:03:33.611Z,68.20
2018-08-19T22:06:05.861Z,68.30
2018-08-19T22:08:34.801Z,68.60
2018-08-19T22:11:03.964Z,67.90
2018-08-19T22:13:33.457Z,67.70
2018-08-19T22:16:04.343Z,67.80
2018-08-19T22:18:33.280Z,67.80
2018-08-19T22:21:24.165Z,67.70
2018-08-19T22:23:56.119Z,68.00
2018-08-19T22:26:24.700Z,68.90
2018-08-19T22:29:14.760Z,67.80
2018-08-19T22:31:44.290Z,67.70
2018-08-19T22:34:14.586Z,66.60
2018-08-19T22:36:44.449Z,67.00
2018-08-19T22:39:18.220Z,68.10
2018-08-19T22:41:51.804Z,67.80
2018-08-19T22:44:20.630Z,68.30
2018-08-19T22:46:51.434Z,68.80
2018-08-19T22:49:20.219Z,68.80
2018-08-19T22:51:49.030Z,68.60
2018-08-19T22:54:17.831Z,68.20
2018-08-19T22:56:48.146Z,68.60
2018-08-19T22:59:16.912Z,68.10
2018-08-19T23:01:48.629Z,68.40
2018-08-19T23:04:17.506Z,69.20
2018-08-19T23:06:47.187Z,69.90
2018-08-19T23:09:18.059Z,69.00
2018-08-19T23:11:48.374Z,69.00
2018-08-19T23:14:34.243Z,68.70
2018-08-19T23:17:06.298Z,68.80
2018-08-19T23:19:36.011Z,69.20
2018-08-19T23:22:04.652Z,69.10
2018-08-19T23:24:33.647Z,69.20
2018-08-19T23:27:02.874Z,69.80
2018-08-19T23:29:31.446Z,68.80
2018-08-19T23:32:00.344Z,69.40
2018-08-19T23:34:29.388Z,69.40
2018-08-19T23:36:58.533Z,69.20
2018-08-19T23:39:27.254Z,69.30
2018-08-19T23:41:57.208Z,69.90
2018-08-19T23:44:26.228Z,69.90
2018-08-19T23:46:56.560Z,69.10
2018-08-19T23:49:25.563Z,70.00
2018-08-19T23:51:54.202Z,70.30
2018-08-19T23:54:22.785Z,70.50
2018-08-19T23:56:51.600Z,71.10
2018-08-19T23:59:28.037Z,71.40
